createdAt,value
2022-12-18T00:01:28.710Z,21.03
2022-12-18T00:03:56.747Z,20.50
2022-12-18T00:06:25.357Z,20.50
2022-12-18T00:08:53.576Z,22.43
2022-12-18T00:11:23.078Z,19.93
2022-12-18T00:13:50.798Z,20.50
2022-12-18T00:16:23.561Z,21.93
2022-12-18T00:18:52.506Z,20.53
2022-12-18T00:21:20.542Z,21.00
2022-12-18T00:23:48.653Z,21.23
2022-12-18T00:26:21.396Z,20.57
2022-12-18T00:28:50.926Z,20.73
2022-12-18T00:31:20.810Z,21.40
2022-12-18T00:33:48.243Z,21.10
2022-12-18T00:36:22.432Z,20.17
2022-12-18T00:38:49.962Z,21.37
2022-12-18T00:41:38.886Z,19.27
2022-12-18T00:44:07.508Z,21.67
2022-12-18T00:46:34.395Z,20.03
2022-12-18T00:49:01.106Z,19.67
2022-12-18T00:51:28.142Z,19.80
2022-12-18T00:53:55.146Z,20.13
2022-12-18T00:56:22.057Z,21.30
2022-12-18T00:58:49.035Z,21.30
2022-12-18T01:01:16.490Z,20.10
2022-12-18T01:03:43.580Z,19.63
2022-12-18T01:06:12.703Z,20.47
2022-12-18T01:08:39.809Z,21.37
2022-12-18T01:11:12.669Z,18.93
2022-12-18T01:13:40.887Z,20.90
2022-12-18T01:16:08.202Z,19.87
2022-12-18T01:18:36.144Z,19.77
2022-12-18T01:21:11.513Z,21.37
2022-12-18T01:23:39.095Z,20.40
2022-12-18T01:26:15.315Z,22.60
2022-12-18T01:28:42.661Z,22.27
2022-12-18T01:31:25.105Z,22.80
2022-12-18T01:33:53.153Z,20.00
2022-12-18T01:36:22.598Z,21.13
2022-12-18T01:38:50.551Z,21.83
2022-12-18T01:41:20.255Z,20.20
2022-12-18T01:43:53.047Z,20.90
2022-12-18T01:46:22.546Z,21.07
2022-12-18T01:48:52.575Z,19.17
2022-12-18T01:51:21.539Z,19.63
2022-12-18T01:53:48.725Z,21.10
2022-12-18T01:56:22.585Z,20.63
2022-12-18T01:59:04.810Z,18.27
2022-12-18T02:01:32.929Z,20.50
2022-12-18T02:04:31.545Z,19.37
2022-12-18T02:07:06.301Z,20.03
2022-12-18T02:09:48.474Z,19.50
2022-12-18T02:12:22.725Z,20.10
2022-12-18T02:15:25.516Z,18.07
2022-12-18T02:17:57.744Z,18.83
2022-12-18T02:20:53.286Z,20.13
2022-12-18T02:23:27.989Z,18.70
2022-12-18T02:26:09.798Z,18.43
2022-12-18T02:28:45.094Z,18.93
2022-12-18T02:31:20.569Z,19.90
2022-12-18T02:33:49.066Z,17.97
2022-12-18T02:36:17.624Z,18.37
2022-12-18T02:38:46.614Z,18.70
2022-12-18T02:41:17.638Z,17.53
2022-12-18T02:43:49.418Z,18.47
2022-12-18T02:46:33.926Z,19.20
2022-12-18T02:49:28.761Z,18.97
2022-12-18T02:52:10.388Z,19.73
2022-12-18T02:54:46.990Z,17.93
2022-12-18T02:57:34.545Z,19.33
2022-12-18T03:00:11.181Z,18.50
2022-12-18T03:03:04.210Z,19.27
2022-12-18T03:06:11.818Z,17.23
2022-12-18T03:08:43.471Z,18.23
2022-12-18T03:11:12.121Z,17.63
2022-12-18T03:13:57.012Z,18.03
2022-12-18T03:16:29.954Z,17.67
2022-12-18T03:19:02.001Z,18.17
2022-12-18T03:21:37.659Z,18.60
2022-12-18T03:24:09.030Z,17.27
2022-12-18T03:26:39.730Z,17.10
2022-12-18T03:29:13.652Z,18.17
2022-12-18T03:31:43.597Z,16.40
2022-12-18T03:34:16.187Z,18.30
2022-12-18T03:36:46.614Z,18.17
2022-12-18T03:39:14.686Z,19.10
2022-12-18T03:41:54.658Z,17.17
2022-12-18T03:45:00.535Z,17.63
2022-12-18T03:47:40.920Z,17.40
2022-12-18T03:50:23.053Z,17.20
2022-12-18T03:52:54.235Z,16.70
2022-12-18T03:55:23.674Z,17.47
2022-12-18T03:57:57.828Z,17.10
2022-12-18T04:00:30.022Z,17.50
2022-12-18T04:03:06.964Z,16.63
2022-12-18T04:05:43.170Z,15.63
2022-12-18T04:08:10.214Z,17.63
2022-12-18T04:10:41.362Z,16.50
2022-12-18T04:13:08.083Z,15.70
2022-12-18T04:15:37.200Z,16.77
2022-12-18T04:18:06.150Z,15.40
2022-12-18T04:20:39.760Z,16.47
2022-12-18T04:23:06.581Z,14.97
2022-12-18T04:25:34.139Z,14.57
2022-12-18T04:28:11.586Z,15.50
2022-12-18T04:30:39.387Z,14.63
2022-12-18T04:33:13.687Z,15.23
2022-12-18T04:35:41.348Z,14.83
2022-12-18T04:38:09.315Z,13.77
2022-12-18T04:40:36.857Z,15.80
2022-12-18T04:43:06.835Z,13.87
2022-12-18T04:45:34.326Z,14.40
2022-12-18T04:48:04.654Z,14.17
2022-12-18T04:50:32.167Z,14.80
2022-12-18T04:52:59.341Z,14.00
2022-12-18T04:55:26.152Z,16.00
2022-12-18T04:57:53.275Z,15.47
2022-12-18T05:00:20.348Z,13.00
2022-12-18T05:02:47.264Z,14.27
2022-12-18T05:05:14.147Z,14.80
2022-12-18T05:07:40.883Z,13.50
2022-12-18T05:10:08.787Z,14.13
2022-12-18T05:12:55.605Z,13.03
2022-12-18T05:15:22.378Z,13.50
2022-12-18T05:17:49.063Z,14.37
2022-12-18T05:20:16.049Z,14.23
2022-12-18T05:22:42.743Z,12.70
2022-12-18T05:25:09.693Z,12.70
2022-12-18T05:27:36.410Z,13.43
2022-12-18T05:30:03.978Z,12.77
2022-12-18T05:32:30.678Z,13.13
2022-12-18T05:34:58.177Z,13.93
2022-12-18T05:37:24.885Z,14.13
2022-12-18T05:39:51.548Z,13.60
2022-12-18T05:42:18.362Z,15.27
2022-12-18T05:44:45.371Z,14.50
2022-12-18T05:47:12.111Z,14.33
2022-12-18T05:49:38.922Z,16.00
2022-12-18T05:52:05.792Z,12.37
2022-12-18T05:54:32.576Z,13.33
2022-12-18T05:56:59.466Z,11.83
2022-12-18T05:59:26.262Z,12.73
2022-12-18T06:01:53.135Z,12.00
2022-12-18T06:04:19.992Z,12.93
2022-12-18T06:06:46.727Z,12.57
2022-12-18T06:09:13.574Z,11.90
2022-12-18T06:11:40.399Z,11.97
2022-12-18T06:14:07.926Z,12.60
2022-12-18T06:16:34.732Z,12.23
2022-12-18T06:19:03.798Z,11.17
2022-12-18T06:21:31.521Z,12.23
2022-12-18T06:23:59.243Z,11.73
2022-12-18T06:26:28.249Z,12.83
2022-12-18T06:28:55.544Z,11.23
2022-12-18T06:31:22.356Z,11.43
2022-12-18T06:33:49.168Z,10.47
2022-12-18T06:36:16.839Z,12.03
2022-12-18T06:38:44.810Z,11.37
2022-12-18T06:41:14.166Z,11.70
2022-12-18T06:43:41.348Z,11.83
2022-12-18T06:46:09.312Z,10.67
2022-12-18T06:48:36.409Z,12.47
2022-12-18T06:51:03.907Z,12.17
2022-12-18T06:53:30.985Z,12.40
2022-12-18T06:56:09.816Z,12.67
2022-12-18T06:58:37.450Z,11.43
2022-12-18T07:01:06.781Z,12.83
2022-12-18T07:03:33.670Z,13.03
2022-12-18T07:06:00.372Z,12.73
2022-12-18T07:08:27.374Z,13.10
2022-12-18T07:10:56.486Z,12.20
2022-12-18T07:13:23.539Z,11.67
2022-12-18T07:15:50.556Z,11.70
2022-12-18T07:18:17.225Z,11.47
2022-12-18T07:20:43.939Z,12.43
2022-12-18T07:23:10.633Z,13.23
2022-12-18T07:25:37.931Z,14.10
2022-12-18T07:28:05.194Z,12.77
2022-12-18T07:30:31.936Z,13.07
2022-12-18T07:32:58.743Z,13.33
2022-12-18T07:35:25.661Z,12.93
2022-12-18T07:37:52.546Z,13.00
2022-12-18T07:40:19.386Z,11.97
2022-12-18T07:42:46.141Z,12.57
2022-12-18T07:45:13.112Z,12.63
2022-12-18T07:47:42.262Z,12.93
2022-12-18T07:50:09.246Z,11.37
2022-12-18T07:52:35.985Z,12.50
2022-12-18T07:55:03.019Z,14.73
2022-12-18T08:00:17.193Z,13.37
2022-12-18T08:02:44.225Z,13.87
2022-12-18T08:05:10.988Z,12.00
2022-12-18T08:07:37.730Z,11.63
2022-12-18T08:10:04.930Z,13.23
2022-12-18T08:12:33.217Z,14.73
2022-12-18T08:14:59.961Z,13.90
2022-12-18T08:17:26.777Z,14.40
2022-12-18T08:19:53.499Z,14.20
2022-12-18T08:22:20.381Z,12.80
2022-12-18T08:24:47.107Z,12.33
2022-12-18T08:27:28.787Z,12.87
2022-12-18T08:29:56.814Z,11.33
2022-12-18T08:32:24.143Z,12.87
2022-12-18T08:34:50.934Z,12.30
2022-12-18T08:37:17.665Z,13.83
2022-12-18T08:39:44.531Z,12.20
2022-12-18T08:42:29.863Z,12.97
2022-12-18T08:44:56.532Z,12.50
2022-12-18T08:47:23.328Z,11.77
2022-12-18T08:49:50.000Z,11.90
2022-12-18T08:52:16.745Z,12.20
2022-12-18T08:54:43.720Z,11.73
2022-12-18T08:57:10.455Z,11.63
2022-12-18T08:59:37.155Z,11.60
2022-12-18T09:02:04.023Z,12.17
2022-12-18T09:04:30.890Z,11.03
2022-12-18T09:06:57.618Z,11.77
2022-12-18T09:09:24.450Z,10.50
2022-12-18T09:11:51.531Z,11.10
2022-12-18T09:14:18.274Z,10.80
2022-12-18T09:16:45.085Z,10.90
2022-12-18T09:19:12.151Z,10.20
2022-12-18T09:21:43.346Z,11.53
2022-12-18T09:24:14.638Z,10.70
2022-12-18T09:26:41.547Z,10.80
2022-12-18T09:29:10.429Z,11.20
2022-12-18T09:31:39.001Z,10.33
2022-12-18T09:34:05.700Z,10.80
2022-12-18T09:36:32.728Z,10.40
2022-12-18T09:39:03.755Z,9.97
2022-12-18T09:41:46.612Z,12.13
2022-12-18T09:44:45.032Z,11.07
2022-12-18T09:47:28.596Z,11.73
2022-12-18T09:49:59.883Z,10.90
2022-12-18T09:52:32.810Z,10.57
2022-12-18T09:55:08.598Z,11.23
2022-12-18T09:57:43.421Z,10.30
2022-12-18T10:00:19.605Z,10.37
2022-12-18T10:02:47.492Z,11.37
2022-12-18T10:05:25.928Z,10.73
2022-12-18T10:08:02.968Z,10.83
2022-12-18T10:10:48.099Z,10.50
2022-12-18T10:13:40.463Z,11.17
2022-12-18T10:16:07.232Z,11.23
2022-12-18T10:18:52.435Z,13.97
2022-12-18T10:21:24.894Z,12.67
2022-12-18T10:24:12.778Z,11.00
2022-12-18T10:26:40.587Z,10.37
2022-12-18T10:29:17.550Z,10.03
2022-12-18T10:31:44.283Z,9.17
2022-12-18T10:34:14.137Z,10.30
2022-12-18T10:36:41.393Z,10.23
2022-12-18T10:39:20.823Z,9.87
2022-12-18T10:41:47.589Z,9.90
2022-12-18T10:44:25.289Z,10.20
2022-12-18T10:46:57.000Z,11.00
2022-12-18T10:49:27.938Z,11.73
2022-12-18T10:52:08.992Z,10.43
2022-12-18T10:54:37.031Z,10.10
2022-12-18T10:57:31.466Z,10.07
2022-12-18T10:59:59.995Z,10.10
2022-12-18T11:02:35.370Z,10.03
2022-12-18T11:05:03.775Z,9.23
2022-12-18T11:07:51.564Z,9.73
2022-12-18T11:10:20.110Z,9.57
2022-12-18T11:12:47.576Z,9.47
2022-12-18T11:15:25.759Z,8.77
2022-12-18T11:17:53.491Z,9.90
2022-12-18T11:20:43.025Z,8.87
2022-12-18T11:23:14.308Z,9.27
2022-12-18T11:25:51.118Z,10.60
2022-12-18T11:28:36.523Z,10.57
2022-12-18T11:31:18.998Z,9.83
2022-12-18T11:34:27.590Z,9.47
2022-12-18T11:36:47.600Z,9.27
2022-12-18T11:39:38.165Z,9.30
2022-12-18T11:42:25.125Z,9.60
2022-12-18T11:44:57.185Z,8.93
2022-12-18T11:47:39.920Z,9.63
2022-12-18T11:50:16.827Z,9.20
2022-12-18T11:52:43.767Z,9.40
2022-12-18T11:55:29.590Z,9.50
2022-12-18T11:58:06.059Z,9.37
2022-12-18T12:00:36.667Z,10.20
2022-12-18T12:03:24.742Z,9.27
2022-12-18T12:06:07.068Z,9.57
2022-12-18T12:09:14.630Z,9.23
2022-12-18T12:12:02.197Z,9.53
2022-12-18T12:14:31.896Z,11.60
2022-12-18T12:17:04.968Z,10.57
2022-12-18T12:20:03.547Z,10.30
2022-12-18T12:22:56.909Z,9.87
2022-12-18T12:25:47.867Z,10.00
2022-12-18T12:28:35.027Z,10.03
2022-12-18T12:31:17.469Z,10.10
2022-12-18T12:34:18.432Z,10.30
2022-12-18T12:37:02.735Z,10.23
2022-12-18T12:39:37.394Z,10.33
2022-12-18T12:42:39.111Z,9.60
2022-12-18T12:45:14.803Z,10.40
2022-12-18T12:47:44.822Z,11.00
2022-12-18T12:50:17.761Z,10.03
2022-12-18T12:52:56.653Z,10.30
2022-12-18T12:55:27.852Z,9.57
2022-12-18T12:58:00.986Z,10.60
2022-12-18T13:00:40.473Z,10.27
2022-12-18T13:03:32.057Z,11.23
2022-12-18T13:06:34.407Z,10.93
2022-12-18T13:09:02.949Z,10.60
2022-12-18T13:12:00.568Z,12.17
2022-12-18T13:14:32.673Z,11.50
2022-12-18T13:17:21.557Z,10.87
2022-12-18T13:20:15.407Z,10.67
2022-12-18T13:22:46.930Z,10.67
2022-12-18T13:25:34.377Z,11.83
2022-12-18T13:28:16.052Z,10.80
2022-12-18T13:30:52.593Z,12.33
2022-12-18T13:33:25.643Z,14.10
2022-12-18T13:36:14.278Z,11.47
2022-12-18T13:38:42.901Z,11.97
2022-12-18T13:41:18.827Z,11.27
2022-12-18T13:43:48.499Z,11.60
2022-12-18T13:46:43.716Z,11.67
2022-12-18T13:49:13.506Z,11.67
2022-12-18T13:51:52.374Z,10.60
2022-12-18T13:54:25.251Z,11.47
2022-12-18T13:56:52.646Z,9.57
2022-12-18T13:59:24.556Z,10.43
2022-12-18T14:02:02.764Z,11.83
2022-12-18T14:04:33.843Z,10.40
2022-12-18T14:07:42.930Z,11.30
2022-12-18T14:10:45.160Z,9.63
2022-12-18T14:13:09.463Z,11.53
2022-12-18T14:15:43.552Z,11.10
2022-12-18T14:18:27.955Z,10.30
2022-12-18T14:20:59.278Z,12.33
2022-12-18T14:23:39.708Z,10.97
2022-12-18T14:26:30.341Z,10.30
2022-12-18T14:29:02.607Z,10.40
2022-12-18T14:31:32.589Z,10.67
2022-12-18T14:33:59.323Z,11.33
2022-12-18T14:36:28.434Z,10.20
2022-12-18T14:39:00.130Z,10.77
2022-12-18T14:41:27.493Z,10.03
2022-12-18T14:43:55.296Z,11.17
2022-12-18T14:46:25.116Z,11.03
2022-12-18T14:48:52.585Z,10.90
2022-12-18T14:51:22.166Z,10.87
2022-12-18T14:53:55.830Z,10.53
2022-12-18T14:56:25.997Z,11.83
2022-12-18T14:59:01.917Z,11.93
2022-12-18T15:01:36.288Z,11.37
2022-12-18T15:04:04.216Z,10.73
2022-12-18T15:06:36.954Z,11.50
2022-12-18T15:09:25.136Z,11.13
2022-12-18T15:12:00.457Z,10.60
2022-12-18T15:14:33.227Z,10.57
2022-12-18T15:17:02.921Z,11.10
2022-12-18T15:19:38.247Z,11.17
2022-12-18T15:22:06.754Z,12.03
2022-12-18T15:24:34.246Z,10.40
2022-12-18T15:27:01.863Z,10.70
2022-12-18T15:29:28.618Z,10.23
2022-12-18T15:32:05.725Z,11.20
2022-12-18T15:34:34.891Z,10.87
2022-12-18T15:37:01.755Z,10.47
2022-12-18T15:39:28.554Z,10.30
2022-12-18T15:42:14.076Z,11.07
2022-12-18T15:44:40.783Z,10.43
2022-12-18T15:47:13.946Z,10.90
2022-12-18T15:49:40.861Z,9.90
2022-12-18T15:52:13.125Z,9.83
2022-12-18T15:54:58.484Z,10.80
2022-12-18T15:57:25.434Z,11.10
2022-12-18T15:59:57.462Z,11.70
2022-12-18T16:02:24.661Z,11.10
2022-12-18T16:04:53.043Z,11.07
2022-12-18T16:07:24.678Z,10.87
2022-12-18T16:09:52.727Z,13.00
2022-12-18T16:12:23.309Z,11.60
2022-12-18T16:14:50.190Z,11.90
2022-12-18T16:17:17.186Z,11.97
2022-12-18T16:19:43.920Z,10.97
2022-12-18T16:22:36.779Z,11.33
2022-12-18T16:25:03.896Z,12.87
2022-12-18T16:27:30.667Z,12.50
2022-12-18T16:29:57.527Z,11.90
2022-12-18T16:32:24.491Z,11.90
2022-12-18T16:34:51.495Z,13.57
2022-12-18T16:37:18.303Z,12.37
2022-12-18T16:39:45.583Z,11.60
2022-12-18T16:42:17.146Z,12.60
2022-12-18T16:44:44.576Z,11.73
2022-12-18T16:47:14.359Z,11.23
2022-12-18T16:49:42.790Z,12.03
2022-12-18T16:52:09.682Z,12.17
2022-12-18T16:54:36.936Z,12.10
2022-12-18T16:57:05.319Z,11.73
2022-12-18T16:59:32.186Z,12.37
2022-12-18T17:01:59.148Z,11.90
2022-12-18T17:04:25.993Z,12.67
2022-12-18T17:06:53.916Z,12.57
2022-12-18T17:09:28.429Z,12.00
2022-12-18T17:11:55.478Z,12.03
2022-12-18T17:14:24.573Z,12.20
2022-12-18T17:17:19.611Z,13.03
2022-12-18T17:19:42.187Z,11.87
2022-12-18T17:22:09.415Z,12.27
2022-12-18T17:24:36.423Z,12.67
2022-12-18T17:27:04.466Z,13.03
2022-12-18T17:29:31.313Z,12.83
2022-12-18T17:31:58.724Z,12.30
2022-12-18T17:34:27.858Z,12.23
2022-12-18T17:36:55.229Z,13.27
2022-12-18T17:39:22.213Z,13.17
2022-12-18T17:41:49.491Z,11.87
2022-12-18T17:44:16.627Z,12.50
2022-12-18T17:46:43.783Z,13.30
2022-12-18T17:49:11.705Z,13.27
2022-12-18T17:51:39.248Z,12.90
2022-12-18T17:54:06.484Z,13.07
2022-12-18T17:56:33.304Z,12.50
2022-12-18T17:59:00.359Z,11.90
2022-12-18T18:01:27.820Z,13.80
2022-12-18T18:03:57.769Z,13.00
2022-12-18T18:06:24.642Z,13.60
2022-12-18T18:08:53.398Z,14.77
2022-12-18T18:11:40.158Z,15.93
2022-12-18T18:14:12.510Z,14.90
2022-12-18T18:16:42.502Z,12.83
2022-12-18T18:19:18.796Z,12.70
2022-12-18T18:21:47.336Z,12.20
2022-12-18T18:24:17.308Z,12.97
2022-12-18T18:26:44.321Z,13.47
2022-12-18T18:29:20.475Z,12.83
2022-12-18T18:31:48.529Z,12.63
2022-12-18T18:34:17.410Z,12.93
2022-12-18T18:36:46.047Z,13.33
2022-12-18T18:39:13.343Z,12.57
2022-12-18T18:41:40.467Z,14.50
2022-12-18T18:44:09.934Z,12.40
2022-12-18T18:46:36.742Z,13.17
2022-12-18T18:49:03.963Z,14.00
2022-12-18T18:51:34.832Z,12.37
2022-12-18T18:54:02.590Z,13.83
2022-12-18T18:59:16.786Z,13.40
2022-12-18T19:01:44.062Z,12.70
2022-12-18T19:04:11.270Z,12.40
2022-12-18T19:06:37.979Z,13.20
2022-12-18T19:09:06.701Z,12.93
2022-12-18T19:11:52.197Z,13.00
2022-12-18T19:14:19.330Z,13.03
2022-12-18T19:16:48.831Z,12.53
2022-12-18T19:19:21.097Z,13.03
2022-12-18T19:21:48.331Z,16.33
2022-12-18T19:24:15.308Z,15.13
2022-12-18T19:26:42.226Z,14.43
2022-12-18T19:29:11.094Z,15.60
2022-12-18T19:31:38.193Z,16.67
2022-12-18T19:34:07.210Z,16.93
2022-12-18T19:36:36.536Z,15.00
2022-12-18T19:39:17.976Z,16.73
2022-12-18T19:41:46.565Z,16.30
2022-12-18T19:44:15.635Z,16.67
2022-12-18T19:46:42.940Z,15.90
2022-12-18T19:49:10.487Z,16.73
2022-12-18T19:51:37.439Z,18.47
2022-12-18T19:54:12.120Z,18.60
2022-12-18T19:56:43.283Z,18.43
2022-12-18T19:59:10.011Z,20.87
2022-12-18T20:01:37.180Z,15.93
2022-12-18T20:04:04.466Z,14.20
2022-12-18T20:06:56.066Z,15.23
2022-12-18T20:09:23.052Z,13.70
2022-12-18T20:11:50.636Z,13.87
2022-12-18T20:14:22.892Z,13.37
2022-12-18T20:16:51.109Z,15.17
2022-12-18T20:19:18.502Z,13.57
2022-12-18T20:21:45.969Z,14.53
2022-12-18T20:24:12.984Z,14.93
2022-12-18T20:26:40.630Z,14.23
2022-12-18T20:29:08.508Z,14.53
2022-12-18T20:31:35.245Z,15.30
2022-12-18T20:34:03.700Z,16.70
2022-12-18T20:36:34.285Z,15.27
2022-12-18T20:39:06.569Z,16.00
2022-12-18T20:41:38.009Z,15.50
2022-12-18T20:44:21.568Z,15.87
2022-12-18T20:46:52.461Z,15.23
2022-12-18T20:49:19.257Z,16.10
2022-12-18T20:51:46.301Z,15.53
2022-12-18T20:54:13.030Z,17.03
2022-12-18T20:56:39.764Z,15.73
2022-12-18T20:59:07.236Z,16.90
2022-12-18T21:01:34.124Z,16.07
2022-12-18T21:04:02.212Z,16.10
2022-12-18T21:06:28.968Z,15.43
2022-12-18T21:08:55.702Z,16.30
2022-12-18T21:11:41.038Z,16.60
2022-12-18T21:14:13.800Z,15.03
2022-12-18T21:16:41.396Z,16.17
2022-12-18T21:19:08.266Z,15.50
2022-12-18T21:21:38.484Z,15.57
2022-12-18T21:24:06.713Z,15.57
2022-12-18T21:26:34.049Z,17.23
2022-12-18T21:29:04.667Z,16.47
2022-12-18T21:31:36.887Z,18.93
2022-12-18T21:34:05.044Z,17.70
2022-12-18T21:36:32.199Z,16.40
2022-12-18T21:38:59.738Z,17.60
2022-12-18T21:41:46.445Z,16.07
2022-12-18T21:44:17.027Z,15.87
2022-12-18T21:46:48.946Z,17.17
2022-12-18T21:49:23.843Z,15.80
2022-12-18T21:51:53.568Z,16.23
2022-12-18T21:54:20.983Z,15.53
2022-12-18T21:56:56.119Z,16.23
2022-12-18T21:59:24.498Z,16.50
2022-12-18T22:01:52.742Z,17.27
2022-12-18T22:04:20.715Z,16.50
2022-12-18T22:06:49.092Z,16.53
2022-12-18T22:09:18.078Z,17.70
2022-12-18T22:11:45.334Z,17.37
2022-12-18T22:14:12.963Z,16.57
2022-12-18T22:16:39.867Z,16.90
2022-12-18T22:19:08.385Z,18.07
2022-12-18T22:21:37.719Z,16.30
2022-12-18T22:24:07.702Z,16.97
2022-12-18T22:26:40.077Z,18.43
2022-12-18T22:29:26.923Z,17.60
2022-12-18T22:31:53.730Z,16.37
2022-12-18T22:34:22.967Z,17.67
2022-12-18T22:36:50.695Z,17.33
2022-12-18T22:39:29.131Z,17.07
2022-12-18T22:41:57.013Z,16.33
2022-12-18T22:44:23.923Z,16.90
2022-12-18T22:47:00.663Z,18.80
2022-12-18T22:49:35.661Z,17.43
2022-12-18T22:52:09.383Z,17.07
2022-12-18T22:54:36.305Z,15.93
2022-12-18T22:57:03.059Z,18.03
2022-12-18T22:59:29.966Z,18.23
2022-12-18T23:01:58.587Z,17.17
2022-12-18T23:04:29.292Z,18.13
2022-12-18T23:07:05.300Z,18.10
2022-12-18T23:09:32.532Z,18.90
2022-12-18T23:11:59.281Z,18.03
2022-12-18T23:14:26.253Z,17.23
2022-12-18T23:16:53.220Z,18.00
2022-12-18T23:19:20.756Z,17.87
2022-12-18T23:21:47.667Z,17.97
2022-12-18T23:24:15.117Z,18.03
2022-12-18T23:26:43.044Z,17.50
2022-12-18T23:29:10.036Z,17.60
2022-12-18T23:31:39.011Z,17.50
2022-12-18T23:34:07.378Z,18.30
2022-12-18T23:36:36.909Z,18.60
2022-12-18T23:39:21.619Z,17.83
2022-12-18T23:41:56.551Z,18.90
2022-12-18T23:44:23.513Z,19.20
2022-12-18T23:46:50.347Z,18.97
2022-12-18T23:49:17.175Z,18.43
2022-12-18T23:51:43.895Z,18.30
2022-12-18T23:54:10.825Z,19.97
2022-12-18T23:56:37.715Z,18.97
2022-12-18T23:59:04.848Z,19.77
